Time;durP1;ratioP1;P1;durP2;ratioP2;P2;SDS_P1;SDS_P2;PMS_P1;PMS_P2;Temp;Humidity;BMP_temperature;BMP_pressure;BME280_temperature;BME280_humidity;BME280_pressure;Samples;Min_cycle;Max_cycle;Signal;HPM_P1;HPM_P2
2021/06/21 00:01:13;;;;;;;8.23;2.40;;;18.00;50.20;;;;;;6177626;23;20033;-65
2021/06/21 00:04:01;;;;;;;9.65;2.78;;;18.00;48.90;;;;;;6177984;23;20096;-65
2021/06/21 00:06:49;;;;;;;8.75;3.03;;;18.00;48.40;;;;;;6176404;23;20436;-64
2021/06/21 00:09:40;;;;;;;7.75;2.53;;;18.10;50.00;;;;;;6174482;23;20049;-64
2021/06/21 00:12:28;;;;;;;8.07;2.50;;;18.10;48.70;;;;;;6178029;23;20103;-65
2021/06/21 00:15:19;;;;;;;8.15;2.63;;;18.10;50.70;;;;;;6178792;23;20048;-65
2021/06/21 00:18:12;;;;;;;7.10;2.35;;;18.00;51.10;;;;;;6174873;23;20027;-65
2021/06/21 00:21:00;;;;;;;7.78;2.17;;;18.10;50.00;;;;;;6175900;23;20114;-64
2021/06/21 00:23:48;;;;;;;9.43;2.30;;;18.30;47.60;;;;;;6177872;23;20029;-65
2021/06/21 00:26:37;;;;;;;10.25;2.15;;;18.20;47.90;;;;;;6177821;23;20095;-65
2021/06/21 00:29:25;;;;;;;10.85;2.33;;;18.20;50.30;;;;;;6175924;23;20032;-65
2021/06/21 00:32:14;;;;;;;8.98;2.38;;;18.20;52.00;;;;;;6176991;23;20044;-64
2021/06/21 00:35:04;;;;;;;9.00;2.38;;;18.20;52.10;;;;;;6177484;23;20347;-64
2021/06/21 00:37:53;;;;;;;9.77;2.30;;;18.10;53.30;;;;;;6175870;23;20067;-64
2021/06/21 00:40:41;;;;;;;5.78;2.13;;;18.10;54.20;;;;;;6176720;23;20473;-65
2021/06/21 00:43:30;;;;;;;10.50;2.70;;;18.20;53.40;;;;;;6177518;23;20178;-64
2021/06/21 00:46:18;;;;;;;9.27;2.20;;;18.20;53.90;;;;;;6176672;23;20477;-64
2021/06/21 00:49:09;;;;;;;10.13;2.38;;;18.20;54.20;;;;;;6174973;23;20091;-65
2021/06/21 00:51:59;;;;;;;11.73;2.50;;;18.20;54.10;;;;;;6177585;23;20029;-65
2021/06/21 00:54:47;;;;;;;5.35;2.15;;;18.30;54.60;;;;;;6179714;23;20052;-65
2021/06/21 00:57:37;;;;;;;6.25;1.90;;;18.20;51.50;;;;;;6174795;23;20024;-66
2021/06/21 01:00:28;;;;;;;7.05;1.98;;;18.30;49.40;;;;;;6176419;23;20028;-64
2021/06/21 01:03:30;;;;;;;6.13;1.73;;;18.20;48.30;;;;;;6177821;23;20029;-65
2021/06/21 01:06:18;;;;;;;11.00;2.13;;;18.10;49.00;;;;;;6176696;23;20029;-64
2021/06/21 01:09:08;;;;;;;6.68;2.00;;;18.00;49.30;;;;;;6174312;23;20079;-64
2021/06/21 01:12:01;;;;;;;8.43;2.22;;;18.10;47.80;;;;;;6177585;23;20107;-65
2021/06/21 01:14:57;;;;;;;11.07;2.13;;;18.10;47.50;;;;;;6177186;23;20029;-66
2021/06/21 01:17:52;;;;;;;12.05;2.35;;;18.00;46.60;;;;;;6174763;23;20147;-65
2021/06/21 01:21:08;;;;;;;11.75;1.90;;;18.10;49.00;;;;;;6177269;23;20079;-65
2021/06/21 01:24:28;;;;;;;;;;;18.30;48.60;;;;;;6178144;23;20025;-65
2021/06/21 01:27:31;;;;;;;8.15;1.52;;;18.20;47.60;;;;;;6176908;23;19987;-66
2021/06/21 01:30:23;;;;;;;9.80;2.08;;;18.10;47.50;;;;;;6176842;23;20087;-65
2021/06/21 01:33:13;;;;;;;10.52;2.33;;;18.00;45.00;;;;;;6176742;23;20068;-65
2021/06/21 01:36:04;;;;;;;13.25;2.58;;;18.10;47.50;;;;;;6177432;23;20021;-64
2021/06/21 01:38:57;;;;;;;7.07;1.98;;;18.10;47.00;;;;;;6171050;23;20477;-65
2021/06/21 01:41:47;;;;;;;9.68;2.08;;;18.00;48.50;;;;;;6177484;23;20115;-65
2021/06/21 01:44:40;;;;;;;5.05;1.83;;;18.10;46.70;;;;;;6178016;23;20036;-65
2021/06/21 01:47:30;;;;;;;9.13;2.03;;;18.10;47.70;;;;;;6175804;23;20024;-65
2021/06/21 01:50:22;;;;;;;7.75;2.10;;;18.10;47.90;;;;;;6176237;23;20028;-65
2021/06/21 01:53:13;;;;;;;5.72;2.22;;;18.10;48.30;;;;;;6177218;23;20021;-63
2021/06/21 01:56:06;;;;;;;9.38;2.40;;;18.00;50.60;;;;;;6178297;23;20100;-64
2021/06/21 01:58:56;;;;;;;12.05;2.45;;;17.90;49.20;;;;;;6172991;23;20808;-65
2021/06/21 02:01:46;;;;;;;10.80;2.00;;;17.80;50.00;;;;;;6177498;23;20569;-65
2021/06/21 02:04:36;;;;;;;7.40;1.88;;;18.00;51.00;;;;;;6179035;23;20033;-66
2021/06/21 02:07:27;;;;;;;6.70;1.80;;;17.90;49.80;;;;;;6176206;23;20177;-65
2021/06/21 02:10:17;;;;;;;12.80;2.53;;;17.80;51.00;;;;;;6176247;23;20025;-65
2021/06/21 02:13:06;;;;;;;6.35;2.00;;;17.90;50.10;;;;;;6177268;23;20489;-65
2021/06/21 02:15:56;;;;;;;6.95;1.92;;;17.80;50.70;;;;;;6177044;23;20100;-65
2021/06/21 02:18:47;;;;;;;10.18;2.10;;;17.70;50.30;;;;;;6174697;23;20068;-65
2021/06/21 02:21:36;;;;;;;9.23;1.85;;;17.80;50.20;;;;;;6179692;23;20029;-65
2021/06/21 02:24:26;;;;;;;6.70;1.63;;;17.90;48.00;;;;;;6179670;23;20448;-65
2021/06/21 02:27:16;;;;;;;14.60;2.35;;;17.80;47.00;;;;;;6177813;23;20291;-65
2021/06/21 02:30:08;;;;;;;9.80;1.95;;;17.70;48.70;;;;;;6176733;23;20021;-64
2021/06/21 02:32:56;;;;;;;10.50;2.42;;;17.80;48.40;;;;;;6179825;23;20459;-65
2021/06/21 02:35:45;;;;;;;7.95;2.08;;;17.80;47.70;;;;;;6157318;23;20099;-65
2021/06/21 02:38:34;;;;;;;9.68;2.13;;;17.80;46.30;;;;;;6175117;23;20785;-65
2021/06/21 02:41:23;;;;;;;7.90;1.95;;;17.70;48.50;;;;;;6179228;23;20048;-65
2021/06/21 02:44:12;;;;;;;10.65;2.20;;;17.60;50.40;;;;;;6178963;23;20025;-64
2021/06/21 02:47:01;;;;;;;8.73;2.58;;;17.70;51.30;;;;;;6176867;23;20475;-65
2021/06/21 02:49:50;;;;;;;8.95;2.05;;;17.60;50.40;;;;;;6176104;23;20017;-65
2021/06/21 02:52:52;;;;;;;8.50;2.35;;;17.60;49.40;;;;;;6178077;23;20088;-64
2021/06/21 02:55:48;;;;;;;9.60;2.10;;;17.60;50.40;;;;;;6179206;23;20148;-64
2021/06/21 02:58:41;;;;;;;11.82;2.40;;;17.70;51.10;;;;;;6175372;23;20028;-65
2021/06/21 03:01:30;;;;;;;10.30;2.70;;;17.80;52.30;;;;;;6179357;23;20068;-65
2021/06/21 03:04:21;;;;;;;7.97;2.35;;;17.90;50.00;;;;;;6179728;23;20021;-66
2021/06/21 03:07:14;;;;;;;9.85;2.33;;;17.90;49.90;;;;;;6177032;23;20103;-66
2021/06/21 03:10:04;;;;;;;10.07;2.38;;;17.90;48.50;;;;;;6175720;23;20405;-63
2021/06/21 03:12:53;;;;;;;10.25;2.58;;;17.80;46.40;;;;;;6177803;23;20101;-64
2021/06/21 03:15:43;;;;;;;10.68;2.67;;;17.90;47.50;;;;;;6178653;23;20028;-65
2021/06/21 03:18:32;;;;;;;9.35;2.42;;;17.90;50.40;;;;;;6174351;23;20452;-65
2021/06/21 03:21:21;;;;;;;9.10;2.17;;;17.80;48.00;;;;;;6177499;23;20020;-65
2021/06/21 03:24:13;;;;;;;10.80;2.45;;;17.90;46.60;;;;;;6179270;23;20095;-65
2021/06/21 03:27:01;;;;;;;13.52;2.80;;;18.10;45.90;;;;;;6177225;23;20083;-64
2021/06/21 03:29:50;;;;;;;9.55;2.13;;;18.10;45.80;;;;;;6173092;23;20053;-65
2021/06/21 03:32:41;;;;;;;8.23;1.80;;;18.10;44.00;;;;;;6177726;23;20425;-65
2021/06/21 03:35:30;;;;;;;6.47;1.92;;;18.10;44.20;;;;;;6178082;23;20079;-65
2021/06/21 03:38:21;;;;;;;9.90;2.53;;;18.10;46.00;;;;;;6174706;23;20047;-65
2021/06/21 03:41:09;;;;;;;13.00;2.30;;;17.90;44.10;;;;;;6179014;23;20088;-66
2021/06/21 03:43:58;;;;;;;12.63;2.78;;;18.00;46.70;;;;;;6179112;23;20025;-64
2021/06/21 03:46:46;;;;;;;6.30;1.85;;;18.00;43.60;;;;;;6176312;23;20052;-65
2021/06/21 03:49:37;;;;;;;10.00;2.15;;;18.10;46.10;;;;;;6174500;23;20036;-65
2021/06/21 03:52:25;;;;;;;10.52;1.98;;;18.20;43.10;;;;;;6178145;23;20383;-65
2021/06/21 03:55:15;;;;;;;9.27;1.80;;;18.40;42.80;;;;;;6178177;23;20131;-65
2021/06/21 03:58:05;;;;;;;7.45;2.20;;;18.50;39.50;;;;;;6173594;23;20028;-64
2021/06/21 04:00:53;;;;;;;8.90;2.45;;;18.30;40.70;;;;;;6178169;23;20017;-64
2021/06/21 04:03:41;;;;;;;13.00;1.92;;;18.60;38.50;;;;;;6177959;23;20027;-66
2021/06/21 04:06:31;;;;;;;10.07;1.95;;;19.60;27.90;;;;;;6176163;23;20024;-63
2021/06/21 04:09:20;;;;;;;9.25;2.20;;;20.10;19.90;;;;;;6174548;23;20474;-65
2021/06/21 04:12:09;;;;;;;6.22;1.60;;;19.80;20.30;;;;;;6176216;23;20225;-65
2021/06/21 04:14:58;;;;;;;5.18;1.50;;;19.70;17.90;;;;;;6177840;23;20025;-65
2021/06/21 04:17:47;;;;;;;12.52;2.35;;;20.20;17.20;;;;;;6177207;23;20548;-64
2021/06/21 04:20:36;;;;;;;7.70;2.10;;;21.70;5.70;;;;;;6178343;23;20025;-63
2021/06/21 04:23:26;;;;;;;8.93;1.77;;;21.80;2.30;;;;;;6177352;23;20563;-64
2021/06/21 04:26:14;;;;;;;5.68;1.52;;;20.90;5.00;;;;;;6177920;23;20095;-64
2021/06/21 04:29:03;;;;;;;6.93;1.42;;;20.50;10.20;;;;;;6173120;23;20111;-65
2021/06/21 04:32:09;;;;;;;9.02;1.83;;;20.10;13.50;;;;;;6178418;23;20029;-64
2021/06/21 04:34:57;;;;;;;9.95;2.38;;;19.40;21.00;;;;;;6175343;23;20394;-65
2021/06/21 04:37:46;;;;;;;7.72;1.92;;;19.50;17.20;;;;;;6175771;23;20052;-64
2021/06/21 04:40:37;;;;;;;12.23;2.42;;;19.30;18.70;;;;;;6179372;23;20025;-64
2021/06/21 04:43:25;;;;;;;8.02;1.92;;;19.20;21.70;;;;;;6177200;23;20092;-63
2021/06/21 04:46:14;;;;;;;9.20;2.13;;;19.10;20.70;;;;;;6177367;23;20029;-65
2021/06/21 04:49:05;;;;;;;8.50;2.30;;;19.20;19.10;;;;;;6172422;23;20025;-64
2021/06/21 04:51:53;;;;;;;8.13;1.70;;;19.00;23.70;;;;;;6178160;23;20372;-65
2021/06/21 04:54:41;;;;;;;9.88;2.10;;;18.80;23.90;;;;;;6177567;23;20079;-64
2021/06/21 04:57:32;;;;;;;13.85;2.42;;;19.00;24.20;;;;;;6176245;23;20092;-63
2021/06/21 05:00:23;;;;;;;13.80;2.40;;;18.90;24.70;;;;;;6176547;23;20538;-64
2021/06/21 05:03:11;;;;;;;8.68;2.25;;;18.80;28.10;;;;;;6177681;23;20104;-65
2021/06/21 05:06:00;;;;;;;11.60;2.42;;;18.60;28.90;;;;;;6177084;23;20025;-63
2021/06/21 05:08:48;;;;;;;9.57;2.70;;;20.10;18.30;;;;;;6172958;23;20028;-64
2021/06/21 05:11:37;;;;;;;8.13;2.40;;;22.00;1.00;;;;;;6177582;23;20017;-64
2021/06/21 05:14:26;;;;;;;11.38;2.00;;;22.80;1.00;;;;;;6177082;23;20053;-64
2021/06/21 05:17:15;;;;;;;7.30;1.60;;;22.30;1.00;;;;;;6175610;23;20057;-65
2021/06/21 05:20:05;;;;;;;8.68;1.98;;;22.70;1.00;;;;;;6173987;23;20069;-64
2021/06/21 05:22:54;;;;;;;8.10;2.05;;;23.60;1.00;;;;;;6178086;23;20025;-64
2021/06/21 05:25:42;;;;;;;12.20;2.28;;;23.60;1.00;;;;;;6177012;23;20148;-65
2021/06/21 05:28:31;;;;;;;9.82;2.45;;;23.70;1.00;;;;;;6172452;23;20585;-64
2021/06/21 05:31:20;;;;;;;8.32;2.00;;;24.00;1.00;;;;;;6177945;23;20665;-65
2021/06/21 05:34:09;;;;;;;9.45;2.22;;;25.00;1.00;;;;;;6175603;23;20064;-65
2021/06/21 05:36:57;;;;;;;11.48;2.05;;;25.10;1.00;;;;;;6175069;23;20637;-64
2021/06/21 05:39:45;;;;;;;15.93;3.25;;;25.90;1.00;;;;;;6174343;23;20147;-64
2021/06/21 05:42:34;;;;;;;6.45;1.80;;;25.70;1.00;;;;;;6175712;23;20303;-63
2021/06/21 05:45:23;;;;;;;5.57;2.42;;;24.30;1.00;;;;;;6175806;23;20096;-64
2021/06/21 05:48:13;;;;;;;8.00;2.08;;;24.50;1.00;;;;;;6172187;23;20040;-65
2021/06/21 05:51:01;;;;;;;8.05;1.77;;;24.50;1.00;;;;;;6177229;23;20045;-62
2021/06/21 05:53:50;;;;;;;4.80;1.70;;;24.90;1.00;;;;;;6177719;23;20111;-65
2021/06/21 05:56:38;;;;;;;6.25;1.73;;;25.60;1.00;;;;;;6156951;23;20032;-64
2021/06/21 05:59:27;;;;;;;4.88;1.95;;;24.90;1.00;;;;;;6175129;23;20083;-64
2021/06/21 06:02:15;;;;;;;12.13;1.92;;;25.10;1.00;;;;;;6178581;23;20100;-64
2021/06/21 06:05:06;;;;;;;12.00;1.88;;;24.70;1.00;;;;;;6178065;23;20101;-64
2021/06/21 06:07:54;;;;;;;10.15;2.40;;;24.50;1.00;;;;;;6174868;23;20031;-65
2021/06/21 06:10:43;;;;;;;10.25;1.98;;;23.10;1.00;;;;;;6178523;23;20024;-64
2021/06/21 06:13:32;;;;;;;6.03;1.52;;;22.80;1.00;;;;;;6157836;23;20096;-64
2021/06/21 06:16:20;;;;;;;6.18;1.67;;;23.30;1.00;;;;;;6158239;23;20032;-64
2021/06/21 06:19:09;;;;;;;8.80;1.92;;;23.20;1.00;;;;;;6161636;23;20370;-63
2021/06/21 06:22:01;;;;;;;5.38;1.45;;;23.10;1.00;;;;;;6180075;23;20322;-64
2021/06/21 06:24:49;;;;;;;8.20;1.63;;;23.40;1.00;;;;;;6178396;23;20100;-64
2021/06/21 06:27:38;;;;;;;4.97;1.38;;;23.30;1.00;;;;;;6176926;23;20075;-64
2021/06/21 06:30:27;;;;;;;4.65;1.20;;;23.00;1.00;;;;;;6178174;23;20028;-63
2021/06/21 06:33:15;;;;;;;5.15;1.40;;;23.20;1.00;;;;;;6177382;23;20104;-64
2021/06/21 06:36:04;;;;;;;7.45;1.80;;;23.30;1.00;;;;;;6177884;23;20366;-64
2021/06/21 06:38:54;;;;;;;4.72;1.30;;;23.50;1.00;;;;;;6173605;23;20029;-65
2021/06/21 06:41:42;;;;;;;4.30;1.20;;;24.10;1.00;;;;;;6179366;23;20028;-65
2021/06/21 06:44:31;;;;;;;9.98;1.50;;;23.90;1.00;;;;;;6178010;23;20025;-64
2021/06/21 06:47:19;;;;;;;6.40;1.60;;;23.80;1.00;;;;;;6175959;23;20115;-63
2021/06/21 06:50:08;;;;;;;5.00;1.30;;;23.50;1.00;;;;;;6174819;23;20025;-64
2021/06/21 06:52:58;;;;;;;10.00;1.60;;;23.60;1.00;;;;;;6178604;23;20728;-65
2021/06/21 06:58:56;;;;;;;4.60;1.25;;;23.80;1.00;;;;;;6174956;23;20175;-64
2021/06/21 07:01:45;;;;;;;5.80;1.20;;;24.20;1.00;;;;;;6179016;23;20032;-63
2021/06/21 07:04:35;;;;;;;6.55;1.50;;;24.30;1.00;;;;;;6177239;23;20025;-64
2021/06/21 07:07:23;;;;;;;8.85;1.92;;;24.10;1.00;;;;;;6176464;23;20098;-64
2021/06/21 07:10:13;;;;;;;8.30;1.27;;;24.20;1.00;;;;;;6175390;23;20052;-65
2021/06/21 07:13:02;;;;;;;4.68;1.30;;;24.10;1.00;;;;;;6178957;23;20092;-64
2021/06/21 07:15:51;;;;;;;6.40;1.40;;;24.40;1.00;;;;;;6178244;23;20083;-64
2021/06/21 07:18:40;;;;;;;7.65;1.80;;;23.70;1.00;;;;;;6173060;23;20454;-65
2021/06/21 07:21:29;;;;;;;4.70;1.40;;;24.40;1.00;;;;;;6178630;23;20021;-64
2021/06/21 07:24:18;;;;;;;4.97;1.20;;;23.90;1.00;;;;;;6178055;23;20052;-64
2021/06/21 07:27:07;;;;;;;4.40;1.20;;;24.20;1.00;;;;;;6176288;23;20025;-64
2021/06/21 07:29:57;;;;;;;6.93;3.00;;;23.70;1.00;;;;;;6174074;23;20043;-64
2021/06/21 07:32:46;;;;;;;6.43;1.35;;;24.10;1.00;;;;;;6178121;23;20127;-65
2021/06/21 07:35:35;;;;;;;5.32;1.20;;;24.50;1.00;;;;;;6178322;23;20462;-65
2021/06/21 07:38:23;;;;;;;6.03;1.17;;;24.50;1.00;;;;;;6172809;23;20174;-63
2021/06/21 07:41:12;;;;;;;3.63;1.20;;;24.60;1.00;;;;;;6177917;23;20036;-63
2021/06/21 07:44:00;;;;;;;4.43;1.25;;;24.70;1.00;;;;;;6178895;23;20029;-64
2021/06/21 07:46:51;;;;;;;4.60;1.35;;;24.50;1.00;;;;;;6175951;23;20033;-64
2021/06/21 07:49:39;;;;;;;4.75;1.42;;;24.90;1.00;;;;;;6173988;23;20028;-66
2021/06/21 07:52:28;;;;;;;4.43;1.20;;;25.00;1.00;;;;;;6177863;23;20144;-64
2021/06/21 07:55:16;;;;;;;4.97;1.15;;;24.30;1.00;;;;;;6176447;23;20029;-64
2021/06/21 07:58:05;;;;;;;5.10;1.40;;;24.70;1.00;;;;;;6173410;23;20753;-64
2021/06/21 08:00:54;;;;;;;7.43;1.90;;;25.40;1.00;;;;;;6176954;23;20123;-67
2021/06/21 08:03:44;;;;;;;5.15;1.20;;;25.50;1.00;;;;;;6177390;23;20075;-63
2021/06/21 08:06:33;;;;;;;6.30;1.50;;;25.40;1.00;;;;;;6177587;23;20025;-64
2021/06/21 08:09:21;;;;;;;7.22;1.40;;;25.40;1.00;;;;;;6173358;23;20119;-64
2021/06/21 08:12:10;;;;;;;5.03;1.50;;;25.10;1.00;;;;;;6178900;23;20060;-63
2021/06/21 08:14:59;;;;;;;3.25;1.40;;;25.40;1.00;;;;;;6177674;23;20048;-64
2021/06/21 08:17:47;;;;;;;5.82;1.10;;;24.90;1.00;;;;;;6174837;23;20036;-64
2021/06/21 08:20:40;;;;;;;4.53;1.20;;;25.30;1.00;;;;;;6176362;23;20024;-63
2021/06/21 08:23:31;;;;;;;3.92;1.40;;;25.70;1.00;;;;;;6178054;23;20017;-64
2021/06/21 08:26:20;;;;;;;5.93;1.48;;;25.90;1.00;;;;;;6177774;23;20163;-64
2021/06/21 08:29:08;;;;;;;3.75;1.27;;;25.50;1.00;;;;;;6172191;23;20020;-63
2021/06/21 08:31:57;;;;;;;5.75;1.35;;;25.70;1.00;;;;;;6177007;23;20144;-64
2021/06/21 08:34:45;;;;;;;6.30;3.20;;;25.80;1.00;;;;;;6178638;23;20117;-64
2021/06/21 08:37:35;;;;;;;3.42;1.20;;;25.80;1.00;;;;;;6176596;23;20025;-65
2021/06/21 08:40:24;;;;;;;3.88;1.42;;;26.20;1.00;;;;;;6176228;23;20032;-63
2021/06/21 08:43:13;;;;;;;5.57;1.10;;;24.90;1.00;;;;;;6178663;23;20017;-63
2021/06/21 08:46:02;;;;;;;4.00;1.58;;;24.70;1.00;;;;;;6176180;23;20025;-64
2021/06/21 08:48:55;;;;;;;3.60;1.20;;;25.20;1.00;;;;;;6171732;23;20099;-65
2021/06/21 08:51:43;;;;;;;3.80;1.48;;;25.90;1.00;;;;;;6176986;23;20025;-64
2021/06/21 08:54:33;;;;;;;3.45;1.25;;;26.40;1.00;;;;;;6176804;23;20035;-63
2021/06/21 08:57:22;;;;;;;4.25;1.23;;;26.50;1.00;;;;;;6175191;23;20021;-64
2021/06/21 09:00:13;;;;;;;4.07;1.30;;;26.20;1.00;;;;;;6175135;23;20028;-64
2021/06/21 09:03:03;;;;;;;6.35;1.40;;;26.30;1.00;;;;;;6176325;23;20021;-65
2021/06/21 09:05:52;;;;;;;3.92;1.13;;;26.50;1.00;;;;;;6177930;23;20035;-64
2021/06/21 09:08:54;;;;;;;3.63;1.20;;;26.40;1.00;;;;;;6171360;23;20080;-63
2021/06/21 09:11:54;;;;;;;2.42;1.20;;;25.40;1.00;;;;;;6177330;23;20079;-63
2021/06/21 09:14:42;;;;;;;6.43;1.58;;;24.90;1.00;;;;;;6176883;23;20517;-65
2021/06/21 09:17:31;;;;;;;4.93;1.75;;;25.10;1.00;;;;;;6175465;23;20553;-63
2021/06/21 09:20:19;;;;;;;4.22;1.50;;;25.30;1.00;;;;;;6176587;23;20216;-64
2021/06/21 09:23:08;;;;;;;7.53;2.08;;;25.20;1.00;;;;;;6176660;23;20028;-64
2021/06/21 09:26:16;;;;;;;5.68;1.55;;;25.30;1.00;;;;;;6177277;23;20025;-65
2021/06/21 09:29:05;;;;;;;3.85;1.50;;;25.30;1.00;;;;;;6172951;23;20663;-65
2021/06/21 09:31:56;;;;;;;4.22;1.30;;;24.90;1.00;;;;;;6179079;23;20141;-65
2021/06/21 09:34:45;;;;;;;4.93;1.40;;;26.00;1.00;;;;;;6180032;23;20053;-65
2021/06/21 09:37:44;;;;;;;6.55;1.30;;;26.20;1.00;;;;;;6177040;23;20104;-64
2021/06/21 09:40:36;;;;;;;3.65;1.20;;;26.90;1.00;;;;;;6177674;23;20031;-64
2021/06/21 09:43:27;;;;;;;3.58;1.20;;;27.40;1.00;;;;;;6179254;23;20028;-64
2021/06/21 09:46:19;;;;;;;5.60;1.58;;;27.00;1.00;;;;;;6178781;23;20447;-64
2021/06/21 09:49:08;;;;;;;4.53;1.45;;;26.90;1.00;;;;;;6174590;23;20031;-65
2021/06/21 09:51:56;;;;;;;3.83;1.45;;;27.10;1.00;;;;;;6177985;23;20471;-64
2021/06/21 09:54:45;;;;;;;4.82;1.58;;;27.50;1.00;;;;;;6177341;23;20021;-63
2021/06/21 09:57:33;;;;;;;4.65;1.33;;;27.00;1.00;;;;;;6176434;23;20330;-65
2021/06/21 10:00:24;;;;;;;4.47;1.55;;;26.50;1.00;;;;;;6177337;23;20028;-63
2021/06/21 10:03:20;;;;;;;5.72;1.20;;;27.20;1.00;;;;;;6179037;23;20024;-65
2021/06/21 10:06:11;;;;;;;4.22;1.42;;;26.90;1.00;;;;;;6177015;23;20021;-64
2021/06/21 10:08:59;;;;;;;3.90;1.23;;;26.70;1.00;;;;;;6171282;23;20470;-65
2021/06/21 10:11:48;;;;;;;5.70;1.40;;;27.40;1.00;;;;;;6177915;23;20035;-64
2021/06/21 10:14:36;;;;;;;6.50;1.83;;;26.30;1.00;;;;;;6177713;23;20367;-64
2021/06/21 10:17:25;;;;;;;5.70;1.65;;;26.70;1.00;;;;;;6175913;23;20056;-64
2021/06/21 10:20:15;;;;;;;5.28;1.70;;;27.70;1.00;;;;;;6176917;23;20134;-65
2021/06/21 10:23:07;;;;;;;6.45;1.77;;;28.10;1.00;;;;;;6177769;23;20053;-65
2021/06/21 10:25:55;;;;;;;5.68;1.63;;;26.30;1.00;;;;;;6177320;23;20376;-64
2021/06/21 10:28:45;;;;;;;5.00;1.33;;;26.40;1.00;;;;;;6172886;23;20529;-65
2021/06/21 10:31:35;;;;;;;5.65;1.60;;;27.30;1.00;;;;;;6177744;23;20100;-65
2021/06/21 10:34:24;;;;;;;3.63;1.58;;;28.40;1.00;;;;;;6177635;23;20065;-64
2021/06/21 10:37:17;;;;;;;5.13;1.63;;;28.00;1.00;;;;;;6174869;23;20024;-65
2021/06/21 10:40:09;;;;;;;2.78;1.23;;;27.50;1.00;;;;;;6174936;23;20031;-64
2021/06/21 10:42:57;;;;;;;6.30;1.65;;;25.70;1.00;;;;;;6178493;23;20025;-64
2021/06/21 10:45:46;;;;;;;3.58;1.40;;;25.30;1.00;;;;;;6176039;23;20140;-64
2021/06/21 10:48:34;;;;;;;5.25;1.48;;;26.10;1.00;;;;;;6173636;23;20025;-64
2021/06/21 10:51:30;;;;;;;9.70;1.70;;;26.70;1.00;;;;;;6178421;23;20024;-65
2021/06/21 10:54:24;;;;;;;3.22;1.20;;;27.90;1.00;;;;;;6177230;23;20017;-64
2021/06/21 10:57:21;;;;;;;4.53;1.50;;;28.00;1.00;;;;;;6176035;23;20048;-64
2021/06/21 11:00:16;;;;;;;4.60;1.40;;;28.40;1.00;;;;;;6175546;23;20025;-64
2021/06/21 11:03:34;;;;;;;5.40;1.40;;;27.40;1.00;;;;;;6178466;23;20071;-65
2021/06/21 11:06:39;;;;;;;9.55;1.98;;;27.10;1.00;;;;;;6177669;23;20103;-64
2021/06/21 11:09:42;;;;;;;4.45;1.58;;;27.30;1.00;;;;;;6172774;23;20048;-64
2021/06/21 11:12:39;;;;;;;7.25;2.70;;;26.20;1.00;;;;;;6178440;23;20035;-65
2021/06/21 11:15:28;;;;;;;7.07;1.80;;;26.80;1.00;;;;;;6174884;23;20025;-66
2021/06/21 11:18:25;;;;;;;2.72;1.40;;;26.30;1.00;;;;;;6173837;23;20031;-63
2021/06/21 11:21:15;;;;;;;3.70;1.50;;;25.40;1.00;;;;;;6176304;23;20123;-64
2021/06/21 11:24:03;;;;;;;2.42;1.35;;;25.40;1.00;;;;;;6178060;23;20096;-66
2021/06/21 11:27:01;;;;;;;5.43;1.50;;;25.70;1.00;;;;;;6175869;23;20052;-65
2021/06/21 11:29:53;;;;;;;6.43;2.08;;;25.80;1.00;;;;;;6175044;23;20474;-64
2021/06/21 11:32:54;;;;;;;7.10;1.70;;;25.80;1.00;;;;;;6178582;23;20482;-65
2021/06/21 11:36:04;;;;;;;8.95;1.40;;;25.80;1.00;;;;;;6176161;23;20025;-65
2021/06/21 11:38:52;;;;;;;3.42;1.58;;;25.90;1.00;;;;;;6173723;23;20254;-65
2021/06/21 11:41:51;;;;;;;2.80;1.35;;;25.60;1.00;;;;;;6178338;23;20031;-65
2021/06/21 11:44:51;;;;;;;5.88;1.52;;;25.50;1.00;;;;;;6176524;23;20028;-65
2021/06/21 11:47:41;;;;;;;2.50;1.20;;;25.50;1.00;;;;;;6174159;23;20477;-65
2021/06/21 11:50:32;;;;;;;3.42;1.30;;;26.00;1.00;;;;;;6177459;23;20120;-65
2021/06/21 11:53:24;;;;;;;2.88;1.52;;;25.40;1.00;;;;;;6177921;23;20079;-65
2021/06/21 11:56:22;;;;;;;3.50;2.00;;;25.50;1.00;;;;;;6177629;23;20336;-64
2021/06/21 11:59:11;;;;;;;5.20;1.60;;;25.80;1.00;;;;;;6170781;23;20369;-64
2021/06/21 12:02:03;;;;;;;4.00;1.65;;;26.30;1.00;;;;;;6177056;23;20028;-64
2021/06/21 12:04:54;;;;;;;4.15;1.60;;;26.20;1.00;;;;;;6177438;23;20021;-64
2021/06/21 12:07:50;;;;;;;3.30;1.50;;;26.60;1.00;;;;;;6171486;23;20030;-64
2021/06/21 12:10:39;;;;;;;4.38;1.30;;;26.80;1.00;;;;;;6176406;23;20029;-65
2021/06/21 12:13:27;;;;;;;5.60;1.30;;;27.00;1.00;;;;;;6177931;23;20028;-63
2021/06/21 12:16:16;;;;;;;5.03;1.30;;;27.00;1.00;;;;;;6176442;23;20029;-65
2021/06/21 12:19:07;;;;;;;2.70;1.02;;;26.60;1.00;;;;;;6171071;23;20122;-66
2021/06/21 12:21:56;;;;;;;2.25;1.42;;;26.60;1.00;;;;;;6175279;23;20021;-66
2021/06/21 12:24:44;;;;;;;5.78;1.60;;;27.00;1.00;;;;;;6176573;23;20025;-65
2021/06/21 12:27:33;;;;;;;3.08;1.20;;;26.60;1.00;;;;;;6173415;23;20418;-62
2021/06/21 12:30:35;;;;;;;2.70;1.25;;;26.50;1.00;;;;;;6174345;23;20024;-63
2021/06/21 12:33:39;;;;;;;3.85;1.30;;;26.30;1.00;;;;;;6176799;23;20102;-64
2021/06/21 12:36:35;;;;;;;4.33;1.50;;;26.20;1.00;;;;;;6175661;23;20667;-64
2021/06/21 12:39:26;;;;;;;4.07;1.58;;;26.10;1.00;;;;;;6172752;23;20313;-63
2021/06/21 12:42:16;;;;;;;4.40;1.20;;;25.80;1.00;;;;;;6176848;23;20025;-63
2021/06/21 12:45:10;;;;;;;4.50;1.58;;;26.00;1.00;;;;;;6174385;23;20463;-78
2021/06/21 12:47:59;;;;;;;5.57;1.77;;;26.40;1.00;;;;;;6172849;23;20214;-67
2021/06/21 12:50:48;;;;;;;5.95;1.58;;;26.10;1.00;;;;;;6175290;23;20017;-67
2021/06/21 12:53:43;;;;;;;1.75;1.20;;;26.30;1.00;;;;;;6175260;23;20025;-66
2021/06/21 12:56:35;;;;;;;5.53;1.85;;;26.10;1.00;;;;;;6175215;23;20465;-67
2021/06/21 12:59:29;;;;;;;3.75;1.35;;;26.70;1.00;;;;;;6171896;23;20044;-67
2021/06/21 13:02:19;;;;;;;;;;;27.00;1.00;;;;;;6176689;23;20025;-66
2021/06/21 13:05:12;;;;;;;1.83;1.20;;;27.10;1.00;;;;;;6178384;23;19923;-69
2021/06/21 13:08:01;;;;;;;4.35;1.42;;;27.70;1.00;;;;;;6173114;23;20112;-67
2021/06/21 13:10:51;;;;;;;3.75;1.25;;;27.90;1.00;;;;;;6175237;23;20407;-65
2021/06/21 13:13:41;;;;;;;3.42;1.70;;;26.70;1.00;;;;;;6175681;23;20035;-66
2021/06/21 13:16:30;;;;;;;2.97;1.33;;;26.30;1.00;;;;;;6173997;23;20142;-66
2021/06/21 13:19:20;;;;;;;4.43;1.40;;;26.00;1.00;;;;;;6171865;23;20123;-65
2021/06/21 13:22:12;;;;;;;2.88;1.30;;;26.50;1.00;;;;;;6175211;23;20100;-66
2021/06/21 13:25:17;;;;;;;2.85;1.30;;;26.80;1.00;;;;;;6176202;23;20060;-66
2021/06/21 13:28:09;;;;;;;7.28;1.58;;;27.20;1.00;;;;;;6172828;23;20029;-66
2021/06/21 13:31:00;;;;;;;7.20;1.30;;;26.80;1.00;;;;;;6175580;23;20034;-66
2021/06/21 13:33:52;;;;;;;4.50;2.20;;;27.40;1.00;;;;;;6175759;23;20098;-67
2021/06/21 13:36:57;;;;;;;4.90;1.33;;;28.00;1.00;;;;;;6172906;23;20028;-66
2021/06/21 13:40:00;;;;;;;4.25;1.27;;;27.50;1.00;;;;;;6172671;23;20029;-66
2021/06/21 13:42:53;;;;;;;3.13;1.50;;;27.50;1.00;;;;;;6175340;23;20104;-66
2021/06/21 13:45:44;;;;;;;3.25;1.10;;;27.70;1.00;;;;;;6173745;23;20017;-67
2021/06/21 13:48:35;;;;;;;3.33;1.27;;;27.50;1.00;;;;;;6171882;23;20354;-66
2021/06/21 13:51:24;;;;;;;2.83;1.40;;;27.40;1.00;;;;;;6176379;23;20576;-65
2021/06/21 13:54:13;;;;;;;2.70;1.20;;;27.90;1.00;;;;;;6177324;23;20031;-66
2021/06/21 13:57:10;;;;;;;4.82;1.17;;;27.70;1.00;;;;;;6172898;23;20061;-66
2021/06/21 13:59:58;;;;;;;3.33;1.30;;;27.10;1.00;;;;;;6173714;23;20028;-66
2021/06/21 14:02:48;;;;;;;3.40;1.40;;;27.20;1.00;;;;;;6176764;23;20704;-65
2021/06/21 14:05:36;;;;;;;2.83;1.00;;;27.50;1.00;;;;;;6176655;23;20024;-65
2021/06/21 14:08:30;;;;;;;4.97;1.23;;;27.30;1.00;;;;;;6172279;23;20151;-66
2021/06/21 14:11:18;;;;;;;4.57;1.58;;;27.40;1.00;;;;;;6175715;23;20052;-66
2021/06/21 14:14:07;;;;;;;4.78;1.40;;;27.40;1.00;;;;;;6176315;23;20475;-65
2021/06/21 14:16:55;;;;;;;3.15;1.00;;;27.90;1.00;;;;;;6176201;23;20083;-66
2021/06/21 14:19:46;;;;;;;1.58;1.00;;;27.40;1.00;;;;;;6175064;23;20044;-67
2021/06/21 14:22:34;;;;;;;6.55;1.55;;;27.50;1.00;;;;;;6177105;23;20104;-67
2021/06/21 14:25:23;;;;;;;2.40;1.35;;;27.50;1.00;;;;;;6176417;23;20091;-66
2021/06/21 14:28:12;;;;;;;2.85;1.33;;;27.70;1.00;;;;;;6175035;23;20029;-66
2021/06/21 14:31:02;;;;;;;3.75;1.30;;;27.40;1.00;;;;;;6177000;23;20041;-66
2021/06/21 14:33:51;;;;;;;3.67;1.13;;;27.20;1.00;;;;;;6177039;23;20359;-65
2021/06/21 14:36:41;;;;;;;3.55;1.50;;;27.20;1.00;;;;;;6176296;23;20028;-65
2021/06/21 14:39:30;;;;;;;2.85;1.20;;;27.80;1.00;;;;;;6174616;23;20506;-65
2021/06/21 14:42:18;;;;;;;3.75;1.30;;;27.10;1.00;;;;;;6175755;23;20485;-65
2021/06/21 14:45:08;;;;;;;4.18;1.20;;;27.00;1.00;;;;;;6178237;23;20025;-65
2021/06/21 14:47:57;;;;;;;7.07;1.45;;;26.90;1.00;;;;;;6175374;23;20032;-67
2021/06/21 14:50:46;;;;;;;2.75;1.40;;;26.70;1.00;;;;;;6175105;23;20029;-65
2021/06/21 14:53:36;;;;;;;3.55;1.25;;;26.60;1.00;;;;;;6154795;23;20568;-66
2021/06/21 14:56:25;;;;;;;2.10;1.33;;;26.40;1.00;;;;;;6177072;23;20096;-66
2021/06/21 14:59:14;;;;;;;2.10;1.20;;;26.60;1.00;;;;;;6173546;23;20032;-66